Terminal Aerodrome Forecast
Issued by NWS Grand Forks, ND

Home | Current Version | Previous Version | Text Only | Print | Product List | Glossary On
Versions: 1 2 3 4 5 6 7 8 9 10 11 12 13 14 15 16 17 18 19 20
018
FTUS43 KFGF 261136
TAFGFK
TAF
KGFK 261136Z 2612/2712 36007KT P6SM -RA BKN005 OVC080
     FM261300 35007KT P6SM -RA OVC008
     FM261600 34007KT 4SM -RA OVC015
     FM262000 33009KT P6SM VCSH OVC015
     FM262200 32009KT P6SM BKN015
     FM270000 32005KT P6SM BKN040
     FM270600 25004KT P6SM SCT100=

USA.gov is the U.S. government's official web portal to all federal, state and local government web resources and services.